sensor_id;sensor_type;location;lat;lon;timestamp;pressure;altitude;pressure_sealevel;temperature
9985;BMP180;16737;50.932;6.780;2022-09-09T00:02:03;99604.00;;;22.50
9985;BMP180;16737;50.932;6.780;2022-09-09T00:04:32;99605.00;;;22.40
9985;BMP180;16737;50.932;6.780;2022-09-09T00:07:04;99601.00;;;22.40
9985;BMP180;16737;50.932;6.780;2022-09-09T00:09:39;99596.00;;;22.40
9985;BMP180;16737;50.932;6.780;2022-09-09T00:12:12;99599.00;;;22.40
9985;BMP180;16737;50.932;6.780;2022-09-09T00:14:47;99591.00;;;22.30
9985;BMP180;16737;50.932;6.780;2022-09-09T00:17:25;99597.00;;;22.30
9985;BMP180;16737;50.932;6.780;2022-09-09T00:19:59;99598.00;;;22.20
9985;BMP180;16737;50.932;6.780;2022-09-09T00:22:29;99597.00;;;22.10
9985;BMP180;16737;50.932;6.780;2022-09-09T00:25:08;99595.00;;;22.10
9985;BMP180;16737;50.932;6.780;2022-09-09T00:27:41;99597.00;;;22.00
9985;BMP180;16737;50.932;6.780;2022-09-09T00:30:16;99596.00;;;22.00
9985;BMP180;16737;50.932;6.780;2022-09-09T00:32:46;99585.00;;;22.00
9985;BMP180;16737;50.932;6.780;2022-09-09T00:35:21;99600.00;;;22.00
9985;BMP180;16737;50.932;6.780;2022-09-09T00:37:51;99590.00;;;22.00
9985;BMP180;16737;50.932;6.780;2022-09-09T00:40:24;99587.00;;;22.00
9985;BMP180;16737;50.932;6.780;2022-09-09T00:43:09;99583.00;;;22.00
9985;BMP180;16737;50.932;6.780;2022-09-09T00:46:01;99588.00;;;22.00
9985;BMP180;16737;50.932;6.780;2022-09-09T00:48:37;99586.00;;;22.00
9985;BMP180;16737;50.932;6.780;2022-09-09T00:51:13;99583.00;;;22.00
9985;BMP180;16737;50.932;6.780;2022-09-09T00:54:10;99589.00;;;22.00
9985;BMP180;16737;50.932;6.780;2022-09-09T00:56:47;99596.00;;;21.90
9985;BMP180;16737;50.932;6.780;2022-09-09T00:59:25;99589.00;;;21.90
9985;BMP180;16737;50.932;6.780;2022-09-09T01:01:55;99588.00;;;21.80
9985;BMP180;16737;50.932;6.780;2022-09-09T01:04:29;99597.00;;;21.80
9985;BMP180;16737;50.932;6.780;2022-09-09T01:07:04;99600.00;;;21.80
9985;BMP180;16737;50.932;6.780;2022-09-09T01:09:42;99590.00;;;21.70
9985;BMP180;16737;50.932;6.780;2022-09-09T01:12:15;99593.00;;;21.70
9985;BMP180;16737;50.932;6.780;2022-09-09T01:14:48;99580.00;;;21.60
9985;BMP180;16737;50.932;6.780;2022-09-09T01:17:19;99588.00;;;21.60
9985;BMP180;16737;50.932;6.780;2022-09-09T01:20:02;99576.00;;;21.50
9985;BMP180;16737;50.932;6.780;2022-09-09T01:22:35;99582.00;;;21.50
9985;BMP180;16737;50.932;6.780;2022-09-09T01:25:23;99583.00;;;21.40
9985;BMP180;16737;50.932;6.780;2022-09-09T01:27:56;99585.00;;;21.50
9985;BMP180;16737;50.932;6.780;2022-09-09T01:30:24;99582.00;;;21.40
9985;BMP180;16737;50.932;6.780;2022-09-09T01:32:55;99577.00;;;21.40
9985;BMP180;16737;50.932;6.780;2022-09-09T01:35:34;99576.00;;;21.40
9985;BMP180;16737;50.932;6.780;2022-09-09T01:38:05;99576.00;;;21.40
9985;BMP180;16737;50.932;6.780;2022-09-09T01:40:32;99582.00;;;21.40
9985;BMP180;16737;50.932;6.780;2022-09-09T01:43:01;99588.00;;;21.30
9985;BMP180;16737;50.932;6.780;2022-09-09T01:45:29;99592.00;;;21.30
9985;BMP180;16737;50.932;6.780;2022-09-09T01:47:57;99588.00;;;21.30
9985;BMP180;16737;50.932;6.780;2022-09-09T01:50:25;99595.00;;;21.30
9985;BMP180;16737;50.932;6.780;2022-09-09T01:52:57;99589.00;;;21.30
9985;BMP180;16737;50.932;6.780;2022-09-09T01:55:29;99587.00;;;21.30
9985;BMP180;16737;50.932;6.780;2022-09-09T01:58:16;99585.00;;;21.20
9985;BMP180;16737;50.932;6.780;2022-09-09T02:00:52;99595.00;;;21.20
9985;BMP180;16737;50.932;6.780;2022-09-09T02:03:25;99576.00;;;21.20
9985;BMP180;16737;50.932;6.780;2022-09-09T02:06:00;99588.00;;;21.20
9985;BMP180;16737;50.932;6.780;2022-09-09T02:08:36;99585.00;;;21.20
9985;BMP180;16737;50.932;6.780;2022-09-09T02:11:09;99583.00;;;21.30
9985;BMP180;16737;50.932;6.780;2022-09-09T02:13:40;99586.00;;;21.30
9985;BMP180;16737;50.932;6.780;2022-09-09T02:16:12;99585.00;;;21.30
9985;BMP180;16737;50.932;6.780;2022-09-09T02:18:47;99586.00;;;21.30
9985;BMP180;16737;50.932;6.780;2022-09-09T02:21:17;99584.00;;;21.30
9985;BMP180;16737;50.932;6.780;2022-09-09T02:23:46;99584.00;;;21.30
9985;BMP180;16737;50.932;6.780;2022-09-09T02:26:15;99583.00;;;21.30
9985;BMP180;16737;50.932;6.780;2022-09-09T02:28:48;99584.00;;;21.30
9985;BMP180;16737;50.932;6.780;2022-09-09T02:31:18;99582.00;;;21.40
9985;BMP180;16737;50.932;6.780;2022-09-09T02:33:50;99576.00;;;21.40
9985;BMP180;16737;50.932;6.780;2022-09-09T02:36:19;99581.00;;;21.40
9985;BMP180;16737;50.932;6.780;2022-09-09T02:38:49;99577.00;;;21.40
9985;BMP180;16737;50.932;6.780;2022-09-09T02:41:19;99574.00;;;21.40
9985;BMP180;16737;50.932;6.780;2022-09-09T02:43:49;99567.00;;;21.40
9985;BMP180;16737;50.932;6.780;2022-09-09T02:46:32;99572.00;;;21.40
9985;BMP180;16737;50.932;6.780;2022-09-09T02:49:06;99573.00;;;21.50
9985;BMP180;16737;50.932;6.780;2022-09-09T02:51:43;99568.00;;;21.50
9985;BMP180;16737;50.932;6.780;2022-09-09T02:54:17;99563.00;;;21.50
9985;BMP180;16737;50.932;6.780;2022-09-09T02:56:52;99568.00;;;21.50
9985;BMP180;16737;50.932;6.780;2022-09-09T02:59:21;99561.00;;;21.50
9985;BMP180;16737;50.932;6.780;2022-09-09T03:01:49;99552.00;;;21.50
9985;BMP180;16737;50.932;6.780;2022-09-09T03:04:17;99556.00;;;21.50
9985;BMP180;16737;50.932;6.780;2022-09-09T03:06:44;99557.00;;;21.50
9985;BMP180;16737;50.932;6.780;2022-09-09T03:09:11;99562.00;;;21.50
9985;BMP180;16737;50.932;6.780;2022-09-09T03:11:39;99560.00;;;21.50
9985;BMP180;16737;50.932;6.780;2022-09-09T03:14:06;99560.00;;;21.50
9985;BMP180;16737;50.932;6.780;2022-09-09T03:16:34;99556.00;;;21.50
9985;BMP180;16737;50.932;6.780;2022-09-09T03:19:04;99560.00;;;21.60
9985;BMP180;16737;50.932;6.780;2022-09-09T03:21:32;99560.00;;;21.60
9985;BMP180;16737;50.932;6.780;2022-09-09T03:23:59;99563.00;;;21.60
9985;BMP180;16737;50.932;6.780;2022-09-09T03:26:29;99555.00;;;21.60
9985;BMP180;16737;50.932;6.780;2022-09-09T03:28:57;99563.00;;;21.60
9985;BMP180;16737;50.932;6.780;2022-09-09T03:31:26;99560.00;;;21.60
9985;BMP180;16737;50.932;6.780;2022-09-09T03:33:57;99561.00;;;21.60
9985;BMP180;16737;50.932;6.780;2022-09-09T03:36:25;99562.00;;;21.60
9985;BMP180;16737;50.932;6.780;2022-09-09T03:38:54;99554.00;;;21.60
9985;BMP180;16737;50.932;6.780;2022-09-09T03:41:21;99552.00;;;21.40
9985;BMP180;16737;50.932;6.780;2022-09-09T03:43:49;99568.00;;;21.60
9985;BMP180;16737;50.932;6.780;2022-09-09T03:46:17;99553.00;;;21.60
9985;BMP180;16737;50.932;6.780;2022-09-09T03:48:44;99560.00;;;21.70
9985;BMP180;16737;50.932;6.780;2022-09-09T03:51:13;99562.00;;;21.70
9985;BMP180;16737;50.932;6.780;2022-09-09T03:53:42;99567.00;;;21.70
9985;BMP180;16737;50.932;6.780;2022-09-09T03:56:09;99568.00;;;21.70
9985;BMP180;16737;50.932;6.780;2022-09-09T03:58:37;99560.00;;;21.70
9985;BMP180;16737;50.932;6.780;2022-09-09T04:01:07;99556.00;;;21.70
9985;BMP180;16737;50.932;6.780;2022-09-09T04:03:35;99554.00;;;21.70
9985;BMP180;16737;50.932;6.780;2022-09-09T04:06:03;99560.00;;;21.70
9985;BMP180;16737;50.932;6.780;2022-09-09T04:08:34;99550.00;;;21.70
9985;BMP180;16737;50.932;6.780;2022-09-09T04:11:02;99562.00;;;21.70
9985;BMP180;16737;50.932;6.780;2022-09-09T04:13:33;99554.00;;;21.70
9985;BMP180;16737;50.932;6.780;2022-09-09T04:16:02;99555.00;;;21.60
9985;BMP180;16737;50.932;6.780;2022-09-09T04:18:30;99556.00;;;21.80
9985;BMP180;16737;50.932;6.780;2022-09-09T04:20:57;99557.00;;;21.80
9985;BMP180;16737;50.932;6.780;2022-09-09T04:23:26;99552.00;;;21.80
9985;BMP180;16737;50.932;6.780;2022-09-09T04:25:57;99547.00;;;21.80
9985;BMP180;16737;50.932;6.780;2022-09-09T04:28:27;99554.00;;;21.80
9985;BMP180;16737;50.932;6.780;2022-09-09T04:30:54;99549.00;;;21.80
9985;BMP180;16737;50.932;6.780;2022-09-09T04:33:24;99556.00;;;21.80
9985;BMP180;16737;50.932;6.780;2022-09-09T04:35:53;99563.00;;;21.80
9985;BMP180;16737;50.932;6.780;2022-09-09T04:38:21;99566.00;;;21.80
9985;BMP180;16737;50.932;6.780;2022-09-09T04:40:50;99562.00;;;21.80
9985;BMP180;16737;50.932;6.780;2022-09-09T04:43:21;99561.00;;;21.80
9985;BMP180;16737;50.932;6.780;2022-09-09T04:45:50;99555.00;;;21.80
9985;BMP180;16737;50.932;6.780;2022-09-09T04:48:18;99555.00;;;21.90
9985;BMP180;16737;50.932;6.780;2022-09-09T04:50:54;99562.00;;;21.80
9985;BMP180;16737;50.932;6.780;2022-09-09T04:53:22;99555.00;;;21.90
9985;BMP180;16737;50.932;6.780;2022-09-09T04:55:49;99566.00;;;21.90
9985;BMP180;16737;50.932;6.780;2022-09-09T04:58:17;99566.00;;;21.90
9985;BMP180;16737;50.932;6.780;2022-09-09T05:00:45;99563.00;;;21.90
9985;BMP180;16737;50.932;6.780;2022-09-09T05:03:12;99563.00;;;21.90
9985;BMP180;16737;50.932;6.780;2022-09-09T05:05:40;99564.00;;;21.90
9985;BMP180;16737;50.932;6.780;2022-09-09T05:08:08;99557.00;;;21.90
9985;BMP180;16737;50.932;6.780;2022-09-09T05:10:38;99557.00;;;21.90
9985;BMP180;16737;50.932;6.780;2022-09-09T05:13:07;99549.00;;;21.90
9985;BMP180;16737;50.932;6.780;2022-09-09T05:15:35;99556.00;;;21.90
9985;BMP180;16737;50.932;6.780;2022-09-09T05:18:03;99560.00;;;21.80
9985;BMP180;16737;50.932;6.780;2022-09-09T05:20:31;99562.00;;;21.90
9985;BMP180;16737;50.932;6.780;2022-09-09T05:22:58;99563.00;;;21.90
9985;BMP180;16737;50.932;6.780;2022-09-09T05:25:26;99563.00;;;21.90
9985;BMP180;16737;50.932;6.780;2022-09-09T05:27:53;99557.00;;;21.90
9985;BMP180;16737;50.932;6.780;2022-09-09T05:30:24;99556.00;;;21.90
9985;BMP180;16737;50.932;6.780;2022-09-09T05:32:52;99565.00;;;21.90
9985;BMP180;16737;50.932;6.780;2022-09-09T05:35:23;99565.00;;;21.90
9985;BMP180;16737;50.932;6.780;2022-09-09T05:37:51;99577.00;;;21.90
9985;BMP180;16737;50.932;6.780;2022-09-09T05:40:18;99568.00;;;21.90
9985;BMP180;16737;50.932;6.780;2022-09-09T05:42:47;99519.00;;;21.90
9985;BMP180;16737;50.932;6.780;2022-09-09T05:45:14;99571.00;;;21.90
9985;BMP180;16737;50.932;6.780;2022-09-09T05:47:42;99563.00;;;21.90
9985;BMP180;16737;50.932;6.780;2022-09-09T05:50:09;99562.00;;;21.90
9985;BMP180;16737;50.932;6.780;2022-09-09T05:52:37;99565.00;;;21.90
9985;BMP180;16737;50.932;6.780;2022-09-09T05:55:06;99572.00;;;21.90
9985;BMP180;16737;50.932;6.780;2022-09-09T05:57:33;99570.00;;;22.00
9985;BMP180;16737;50.932;6.780;2022-09-09T06:00:01;99579.00;;;21.90
9985;BMP180;16737;50.932;6.780;2022-09-09T06:02:28;99579.00;;;22.00
9985;BMP180;16737;50.932;6.780;2022-09-09T06:04:55;99570.00;;;21.90
9985;BMP180;16737;50.932;6.780;2022-09-09T06:07:23;99575.00;;;22.00
9985;BMP180;16737;50.932;6.780;2022-09-09T06:09:51;99573.00;;;22.00
9985;BMP180;16737;50.932;6.780;2022-09-09T06:12:18;99574.00;;;22.00
9985;BMP180;16737;50.932;6.780;2022-09-09T06:14:46;99578.00;;;22.00
9985;BMP180;16737;50.932;6.780;2022-09-09T06:17:14;99573.00;;;22.00
9985;BMP180;16737;50.932;6.780;2022-09-09T06:19:41;99578.00;;;22.00
9985;BMP180;16737;50.932;6.780;2022-09-09T06:22:08;99578.00;;;22.00
9985;BMP180;16737;50.932;6.780;2022-09-09T06:24:38;99580.00;;;22.00
9985;BMP180;16737;50.932;6.780;2022-09-09T06:27:06;99575.00;;;22.00
9985;BMP180;16737;50.932;6.780;2022-09-09T06:29:34;99577.00;;;22.00
9985;BMP180;16737;50.932;6.780;2022-09-09T06:32:01;99579.00;;;22.00
9985;BMP180;16737;50.932;6.780;2022-09-09T06:34:28;99584.00;;;22.00
9985;BMP180;16737;50.932;6.780;2022-09-09T06:36:56;99573.00;;;22.00
9985;BMP180;16737;50.932;6.780;2022-09-09T06:39:24;99575.00;;;22.00
9985;BMP180;16737;50.932;6.780;2022-09-09T06:41:51;99581.00;;;22.10
9985;BMP180;16737;50.932;6.780;2022-09-09T06:44:20;99575.00;;;22.10
9985;BMP180;16737;50.932;6.780;2022-09-09T06:46:48;99576.00;;;22.10
9985;BMP180;16737;50.932;6.780;2022-09-09T06:49:16;99571.00;;;22.10
9985;BMP180;16737;50.932;6.780;2022-09-09T06:51:43;99584.00;;;22.10
9985;BMP180;16737;50.932;6.780;2022-09-09T06:54:11;99571.00;;;22.20
9985;BMP180;16737;50.932;6.780;2022-09-09T06:56:40;99572.00;;;22.20
9985;BMP180;16737;50.932;6.780;2022-09-09T06:59:08;99575.00;;;22.20
9985;BMP180;16737;50.932;6.780;2022-09-09T07:01:38;99570.00;;;22.20
9985;BMP180;16737;50.932;6.780;2022-09-09T07:04:06;99576.00;;;22.30
9985;BMP180;16737;50.932;6.780;2022-09-09T07:06:36;99579.00;;;22.40
9985;BMP180;16737;50.932;6.780;2022-09-09T07:09:05;99573.00;;;22.40
9985;BMP180;16737;50.932;6.780;2022-09-09T07:11:33;99579.00;;;22.40
9985;BMP180;16737;50.932;6.780;2022-09-09T07:14:01;99572.00;;;22.50
9985;BMP180;16737;50.932;6.780;2022-09-09T07:16:28;99571.00;;;22.60
9985;BMP180;16737;50.932;6.780;2022-09-09T07:18:59;99576.00;;;22.60
9985;BMP180;16737;50.932;6.780;2022-09-09T07:21:27;99588.00;;;22.70
9985;BMP180;16737;50.932;6.780;2022-09-09T07:23:55;99579.00;;;22.80
9985;BMP180;16737;50.932;6.780;2022-09-09T07:26:25;99589.00;;;22.80
9985;BMP180;16737;50.932;6.780;2022-09-09T07:28:53;99588.00;;;22.90
9985;BMP180;16737;50.932;6.780;2022-09-09T07:31:23;99589.00;;;22.90
9985;BMP180;16737;50.932;6.780;2022-09-09T07:33:51;99593.00;;;23.00
9985;BMP180;16737;50.932;6.780;2022-09-09T07:36:22;99598.00;;;23.10
9985;BMP180;16737;50.932;6.780;2022-09-09T07:38:50;99597.00;;;23.10
9985;BMP180;16737;50.932;6.780;2022-09-09T07:41:20;99599.00;;;23.20
9985;BMP180;16737;50.932;6.780;2022-09-09T07:43:49;99599.00;;;23.20
9985;BMP180;16737;50.932;6.780;2022-09-09T07:46:18;99614.00;;;23.30
9985;BMP180;16737;50.932;6.780;2022-09-09T07:48:47;99611.00;;;23.40
9985;BMP180;16737;50.932;6.780;2022-09-09T07:51:19;99618.00;;;23.40
9985;BMP180;16737;50.932;6.780;2022-09-09T07:53:51;99604.00;;;23.40
9985;BMP180;16737;50.932;6.780;2022-09-09T07:56:19;99611.00;;;23.50
9985;BMP180;16737;50.932;6.780;2022-09-09T07:58:50;99613.00;;;23.50
9985;BMP180;16737;50.932;6.780;2022-09-09T08:01:20;99621.00;;;23.60
9985;BMP180;16737;50.932;6.780;2022-09-09T08:03:52;99618.00;;;23.60
9985;BMP180;16737;50.932;6.780;2022-09-09T08:06:21;99623.00;;;23.60
9985;BMP180;16737;50.932;6.780;2022-09-09T08:08:52;99621.00;;;23.60
9985;BMP180;16737;50.932;6.780;2022-09-09T08:11:20;99620.00;;;23.60
9985;BMP180;16737;50.932;6.780;2022-09-09T08:13:50;99615.00;;;23.60
9985;BMP180;16737;50.932;6.780;2022-09-09T08:16:19;99609.00;;;23.60
9985;BMP180;16737;50.932;6.780;2022-09-09T08:18:47;99621.00;;;23.60
9985;BMP180;16737;50.932;6.780;2022-09-09T08:21:16;99613.00;;;23.60
9985;BMP180;16737;50.932;6.780;2022-09-09T08:23:46;99616.00;;;23.60
9985;BMP180;16737;50.932;6.780;2022-09-09T08:26:15;99618.00;;;23.60
9985;BMP180;16737;50.932;6.780;2022-09-09T08:28:43;99625.00;;;23.70
9985;BMP180;16737;50.932;6.780;2022-09-09T08:31:13;99630.00;;;23.70
9985;BMP180;16737;50.932;6.780;2022-09-09T08:33:41;99630.00;;;23.70
9985;BMP180;16737;50.932;6.780;2022-09-09T08:36:10;99630.00;;;23.70
9985;BMP180;16737;50.932;6.780;2022-09-09T08:38:38;99629.00;;;23.70
9985;BMP180;16737;50.932;6.780;2022-09-09T08:44:14;99629.00;;;23.70
9985;BMP180;16737;50.932;6.780;2022-09-09T08:46:47;99636.00;;;23.70
9985;BMP180;16737;50.932;6.780;2022-09-09T08:49:29;99639.00;;;23.80
9985;BMP180;16737;50.932;6.780;2022-09-09T08:52:01;99624.00;;;23.80
9985;BMP180;16737;50.932;6.780;2022-09-09T08:54:33;99628.00;;;23.80
9985;BMP180;16737;50.932;6.780;2022-09-09T08:57:03;99629.00;;;23.90
9985;BMP180;16737;50.932;6.780;2022-09-09T08:59:35;99633.00;;;23.90
9985;BMP180;16737;50.932;6.780;2022-09-09T09:02:08;99647.00;;;23.90
9985;BMP180;16737;50.932;6.780;2022-09-09T09:04:59;99632.00;;;23.90
9985;BMP180;16737;50.932;6.780;2022-09-09T09:07:39;99635.00;;;24.00
9985;BMP180;16737;50.932;6.780;2022-09-09T09:10:16;99636.00;;;24.00
9985;BMP180;16737;50.932;6.780;2022-09-09T09:12:46;99638.00;;;24.00
9985;BMP180;16737;50.932;6.780;2022-09-09T09:15:18;99638.00;;;24.00
9985;BMP180;16737;50.932;6.780;2022-09-09T09:17:47;99646.00;;;24.10
9985;BMP180;16737;50.932;6.780;2022-09-09T09:20:18;99650.00;;;24.10
9985;BMP180;16737;50.932;6.780;2022-09-09T09:22:50;99651.00;;;24.10
9985;BMP180;16737;50.932;6.780;2022-09-09T09:25:20;99650.00;;;24.10
9985;BMP180;16737;50.932;6.780;2022-09-09T09:27:57;99648.00;;;24.10
9985;BMP180;16737;50.932;6.780;2022-09-09T09:30:28;99648.00;;;24.10
9985;BMP180;16737;50.932;6.780;2022-09-09T09:33:00;99659.00;;;24.10
9985;BMP180;16737;50.932;6.780;2022-09-09T09:35:28;99657.00;;;24.10
9985;BMP180;16737;50.932;6.780;2022-09-09T09:37:55;99653.00;;;24.10
9985;BMP180;16737;50.932;6.780;2022-09-09T09:40:23;99645.00;;;24.10
9985;BMP180;16737;50.932;6.780;2022-09-09T09:42:54;99647.00;;;24.10
9985;BMP180;16737;50.932;6.780;2022-09-09T09:45:28;99649.00;;;24.10
9985;BMP180;16737;50.932;6.780;2022-09-09T09:48:01;99644.00;;;24.10
9985;BMP180;16737;50.932;6.780;2022-09-09T09:50:29;99648.00;;;24.10
9985;BMP180;16737;50.932;6.780;2022-09-09T09:52:59;99649.00;;;24.10
9985;BMP180;16737;50.932;6.780;2022-09-09T09:55:29;99645.00;;;24.10
9985;BMP180;16737;50.932;6.780;2022-09-09T09:58:03;99650.00;;;24.20
9985;BMP180;16737;50.932;6.780;2022-09-09T10:00:31;99650.00;;;24.30
9985;BMP180;16737;50.932;6.780;2022-09-09T10:03:01;99647.00;;;24.30
9985;BMP180;16737;50.932;6.780;2022-09-09T10:05:29;99646.00;;;24.40
9985;BMP180;16737;50.932;6.780;2022-09-09T10:08:08;99646.00;;;24.40
9985;BMP180;16737;50.932;6.780;2022-09-09T10:10:47;99638.00;;;24.50
9985;BMP180;16737;50.932;6.780;2022-09-09T10:13:22;99648.00;;;24.50
9985;BMP180;16737;50.932;6.780;2022-09-09T10:16:06;99649.00;;;24.50
9985;BMP180;16737;50.932;6.780;2022-09-09T10:18:53;99648.00;;;24.50
9985;BMP180;16737;50.932;6.780;2022-09-09T10:21:39;99643.00;;;24.60
9985;BMP180;16737;50.932;6.780;2022-09-09T10:24:25;99636.00;;;24.60
9985;BMP180;16737;50.932;6.780;2022-09-09T10:27:00;99645.00;;;24.60
9985;BMP180;16737;50.932;6.780;2022-09-09T10:29:40;99643.00;;;24.60
9985;BMP180;16737;50.932;6.780;2022-09-09T10:32:24;99645.00;;;24.50
9985;BMP180;16737;50.932;6.780;2022-09-09T10:34:58;99630.00;;;24.60
9985;BMP180;16737;50.932;6.780;2022-09-09T10:37:43;99636.00;;;24.70
9985;BMP180;16737;50.932;6.780;2022-09-09T10:40:24;99640.00;;;24.70
9985;BMP180;16737;50.932;6.780;2022-09-09T10:43:10;99630.00;;;24.80
9985;BMP180;16737;50.932;6.780;2022-09-09T10:45:49;99633.00;;;24.80
9985;BMP180;16737;50.932;6.780;2022-09-09T10:48:46;99628.00;;;24.90
9985;BMP180;16737;50.932;6.780;2022-09-09T10:51:26;99637.00;;;25.00
9985;BMP180;16737;50.932;6.780;2022-09-09T10:54:13;99626.00;;;25.00
9985;BMP180;16737;50.932;6.780;2022-09-09T10:57:03;99631.00;;;25.10
9985;BMP180;16737;50.932;6.780;2022-09-09T10:59:35;99622.00;;;25.10
9985;BMP180;16737;50.932;6.780;2022-09-09T11:02:15;99627.00;;;25.20
9985;BMP180;16737;50.932;6.780;2022-09-09T11:04:49;99625.00;;;25.20
9985;BMP180;16737;50.932;6.780;2022-09-09T11:07:28;99626.00;;;25.20
9985;BMP180;16737;50.932;6.780;2022-09-09T11:10:02;99621.00;;;25.30
9985;BMP180;16737;50.932;6.780;2022-09-09T11:12:35;99632.00;;;25.30
9985;BMP180;16737;50.932;6.780;2022-09-09T11:15:09;99623.00;;;25.30
9985;BMP180;16737;50.932;6.780;2022-09-09T11:17:46;99630.00;;;25.30
9985;BMP180;16737;50.932;6.780;2022-09-09T11:20:16;99629.00;;;25.30
9985;BMP180;16737;50.932;6.780;2022-09-09T11:22:48;99620.00;;;25.30
9985;BMP180;16737;50.932;6.780;2022-09-09T11:25:18;99625.00;;;25.30
9985;BMP180;16737;50.932;6.780;2022-09-09T11:28:04;99585.00;;;25.20
9985;BMP180;16737;50.932;6.780;2022-09-09T11:30:39;99614.00;;;25.10
9985;BMP180;16737;50.932;6.780;2022-09-09T11:33:44;99628.00;;;25.10
9985;BMP180;16737;50.932;6.780;2022-09-09T11:36:32;99615.00;;;25.00
9985;BMP180;16737;50.932;6.780;2022-09-09T11:39:13;99614.00;;;25.00
9985;BMP180;16737;50.932;6.780;2022-09-09T11:41:45;99613.00;;;25.00
9985;BMP180;16737;50.932;6.780;2022-09-09T11:44:16;99618.00;;;24.80
9985;BMP180;16737;50.932;6.780;2022-09-09T11:46:49;99615.00;;;24.90
9985;BMP180;16737;50.932;6.780;2022-09-09T11:49:27;99612.00;;;24.90
9985;BMP180;16737;50.932;6.780;2022-09-09T11:51:55;99616.00;;;24.90
9985;BMP180;16737;50.932;6.780;2022-09-09T11:54:31;99615.00;;;24.90
9985;BMP180;16737;50.932;6.780;2022-09-09T11:56:58;99603.00;;;24.90
9985;BMP180;16737;50.932;6.780;2022-09-09T11:59:28;99615.00;;;24.90
9985;BMP180;16737;50.932;6.780;2022-09-09T12:01:57;99615.00;;;24.90
9985;BMP180;16737;50.932;6.780;2022-09-09T12:04:36;99619.00;;;24.90
9985;BMP180;16737;50.932;6.780;2022-09-09T12:07:24;99611.00;;;24.90
9985;BMP180;16737;50.932;6.780;2022-09-09T12:09:56;99623.00;;;24.90
9985;BMP180;16737;50.932;6.780;2022-09-09T12:12:30;99622.00;;;24.90
9985;BMP180;16737;50.932;6.780;2022-09-09T12:18:00;99626.00;;;24.90
9985;BMP180;16737;50.932;6.780;2022-09-09T12:20:34;99611.00;;;24.90
9985;BMP180;16737;50.932;6.780;2022-09-09T12:23:15;99617.00;;;24.90
9985;BMP180;16737;50.932;6.780;2022-09-09T12:25:53;99615.00;;;24.90
9985;BMP180;16737;50.932;6.780;2022-09-09T12:28:24;99614.00;;;24.80
9985;BMP180;16737;50.932;6.780;2022-09-09T12:31:00;99621.00;;;24.60
9985;BMP180;16737;50.932;6.780;2022-09-09T12:33:35;99615.00;;;24.80
9985;BMP180;16737;50.932;6.780;2022-09-09T12:36:05;99618.00;;;24.70
9985;BMP180;16737;50.932;6.780;2022-09-09T12:38:39;99635.00;;;24.70
9985;BMP180;16737;50.932;6.780;2022-09-09T12:41:19;99630.00;;;24.60
9985;BMP180;16737;50.932;6.780;2022-09-09T12:43:47;99625.00;;;24.50
9985;BMP180;16737;50.932;6.780;2022-09-09T12:46:24;99623.00;;;24.30
9985;BMP180;16737;50.932;6.780;2022-09-09T12:48:54;99622.00;;;24.40
9985;BMP180;16737;50.932;6.780;2022-09-09T12:51:26;99602.00;;;24.40
9985;BMP180;16737;50.932;6.780;2022-09-09T12:53:55;99599.00;;;24.40
9985;BMP180;16737;50.932;6.780;2022-09-09T12:56:25;99593.00;;;24.50
9985;BMP180;16737;50.932;6.780;2022-09-09T12:58:54;99592.00;;;24.50
9985;BMP180;16737;50.932;6.780;2022-09-09T13:01:24;99595.00;;;24.60
9985;BMP180;16737;50.932;6.780;2022-09-09T13:03:52;99596.00;;;24.70
9985;BMP180;16737;50.932;6.780;2022-09-09T13:06:22;99597.00;;;24.80
9985;BMP180;16737;50.932;6.780;2022-09-09T13:08:51;99593.00;;;24.90
9985;BMP180;16737;50.932;6.780;2022-09-09T13:11:22;99599.00;;;24.90
9985;BMP180;16737;50.932;6.780;2022-09-09T13:13:52;99598.00;;;25.00
9985;BMP180;16737;50.932;6.780;2022-09-09T13:16:22;99592.00;;;25.00
9985;BMP180;16737;50.932;6.780;2022-09-09T13:18:50;99593.00;;;25.00
9985;BMP180;16737;50.932;6.780;2022-09-09T13:21:18;99595.00;;;25.00
9985;BMP180;16737;50.932;6.780;2022-09-09T13:23:50;99583.00;;;25.00
9985;BMP180;16737;50.932;6.780;2022-09-09T13:26:23;99577.00;;;25.10
9985;BMP180;16737;50.932;6.780;2022-09-09T13:28:52;99578.00;;;25.10
9985;BMP180;16737;50.932;6.780;2022-09-09T13:31:23;99576.00;;;25.10
9985;BMP180;16737;50.932;6.780;2022-09-09T13:33:50;99580.00;;;25.10
9985;BMP180;16737;50.932;6.780;2022-09-09T13:36:29;99573.00;;;25.20
9985;BMP180;16737;50.932;6.780;2022-09-09T13:38:59;99575.00;;;25.20
9985;BMP180;16737;50.932;6.780;2022-09-09T13:41:31;99575.00;;;25.20
9985;BMP180;16737;50.932;6.780;2022-09-09T13:44:00;99571.00;;;25.30
9985;BMP180;16737;50.932;6.780;2022-09-09T13:46:32;99568.00;;;25.30
9985;BMP180;16737;50.932;6.780;2022-09-09T13:49:01;99562.00;;;25.30
9985;BMP180;16737;50.932;6.780;2022-09-09T13:51:34;99571.00;;;25.30
9985;BMP180;16737;50.932;6.780;2022-09-09T13:54:05;99567.00;;;25.30
9985;BMP180;16737;50.932;6.780;2022-09-09T13:56:33;99578.00;;;25.40
9985;BMP180;16737;50.932;6.780;2022-09-09T13:59:01;99578.00;;;25.40
9985;BMP180;16737;50.932;6.780;2022-09-09T14:01:28;99577.00;;;25.40
9985;BMP180;16737;50.932;6.780;2022-09-09T14:03:56;99584.00;;;25.40
9985;BMP180;16737;50.932;6.780;2022-09-09T14:06:23;99596.00;;;25.40
9985;BMP180;16737;50.932;6.780;2022-09-09T14:08:51;99616.00;;;25.30
9985;BMP180;16737;50.932;6.780;2022-09-09T14:11:22;99619.00;;;25.10
9985;BMP180;16737;50.932;6.780;2022-09-09T14:13:49;99634.00;;;24.90
9985;BMP180;16737;50.932;6.780;2022-09-09T14:16:16;99622.00;;;24.70
9985;BMP180;16737;50.932;6.780;2022-09-09T14:18:44;99611.00;;;24.50
9985;BMP180;16737;50.932;6.780;2022-09-09T14:21:12;99617.00;;;24.30
9985;BMP180;16737;50.932;6.780;2022-09-09T14:23:39;99617.00;;;24.00
9985;BMP180;16737;50.932;6.780;2022-09-09T14:26:07;99593.00;;;24.00
9985;BMP180;16737;50.932;6.780;2022-09-09T14:28:37;99608.00;;;23.80
9985;BMP180;16737;50.932;6.780;2022-09-09T14:31:06;99609.00;;;23.70
9985;BMP180;16737;50.932;6.780;2022-09-09T14:33:33;99597.00;;;23.60
9985;BMP180;16737;50.932;6.780;2022-09-09T14:36:02;99590.00;;;23.40
9985;BMP180;16737;50.932;6.780;2022-09-09T14:38:31;99596.00;;;23.30
9985;BMP180;16737;50.932;6.780;2022-09-09T14:40:59;99605.00;;;23.20
9985;BMP180;16737;50.932;6.780;2022-09-09T14:43:29;99596.00;;;23.20
9985;BMP180;16737;50.932;6.780;2022-09-09T14:46:05;99602.00;;;23.10
9985;BMP180;16737;50.932;6.780;2022-09-09T14:48:32;99593.00;;;23.10
9985;BMP180;16737;50.932;6.780;2022-09-09T14:51:06;99604.00;;;23.10
9985;BMP180;16737;50.932;6.780;2022-09-09T14:53:33;99593.00;;;23.10